createdAt,value
2023-03-10T00:01:14.950Z,19.50
2023-03-10T00:02:36.678Z,21.08
2023-03-10T00:04:00.030Z,19.90
2023-03-10T00:05:21.838Z,20.23
2023-03-10T00:06:44.279Z,20.52
2023-03-10T00:08:06.799Z,19.02
2023-03-10T00:09:28.823Z,19.17
2023-03-10T00:10:51.453Z,15.98
2023-03-10T00:12:13.339Z,26.38
2023-03-10T00:13:35.880Z,16.63
2023-03-10T00:14:57.577Z,18.73
2023-03-10T00:16:28.013Z,15.93
2023-03-10T00:17:51.430Z,19.05
2023-03-10T00:19:13.139Z,15.70
2023-03-10T00:20:35.315Z,18.75
2023-03-10T00:21:57.125Z,14.82
2023-03-10T00:23:23.904Z,16.60
2023-03-10T00:24:46.061Z,19.73
2023-03-10T00:26:10.097Z,16.58
2023-03-10T00:27:31.956Z,15.57
2023-03-10T00:28:54.884Z,17.70
2023-03-10T00:30:16.792Z,18.08
2023-03-10T00:31:39.274Z,19.85
2023-03-10T00:33:01.084Z,20.77
2023-03-10T00:34:24.647Z,20.38
2023-03-10T00:35:46.371Z,15.65
2023-03-10T00:37:08.634Z,18.05
2023-03-10T00:38:30.614Z,19.00
2023-03-10T00:39:52.833Z,18.55
2023-03-10T00:41:17.400Z,17.40
2023-03-10T00:42:39.375Z,18.60
2023-03-10T00:44:02.135Z,18.55
2023-03-10T00:45:25.731Z,18.48
2023-03-10T00:46:47.501Z,15.45
2023-03-10T00:48:09.496Z,12.80
2023-03-10T00:49:31.194Z,13.10
2023-03-10T00:50:53.236Z,21.35
2023-03-10T00:52:15.383Z,17.48
2023-03-10T00:53:39.414Z,16.05
2023-03-10T00:55:01.365Z,15.20
2023-03-10T00:56:30.161Z,13.02
2023-03-10T00:57:52.118Z,18.50
2023-03-10T00:59:14.066Z,16.45
2023-03-10T01:00:36.112Z,16.48
2023-03-10T01:01:58.451Z,14.23
2023-03-10T01:03:20.592Z,15.68
2023-03-10T01:04:42.844Z,6.57
2023-03-10T01:06:05.589Z,13.40
2023-03-10T01:07:27.481Z,12.90
2023-03-10T01:08:49.906Z,14.85
2023-03-10T01:10:12.985Z,13.63
2023-03-10T01:11:37.286Z,12.25
2023-03-10T01:12:58.995Z,18.38
2023-03-10T01:14:21.354Z,13.93
2023-03-10T01:15:43.693Z,23.40
2023-03-10T01:17:05.750Z,15.43
2023-03-10T01:18:27.548Z,16.35
2023-03-10T01:19:49.495Z,23.20
2023-03-10T01:21:16.668Z,14.30
2023-03-10T01:22:38.813Z,20.10
2023-03-10T01:24:01.455Z,14.60
2023-03-10T01:25:23.577Z,14.98
2023-03-10T01:26:46.228Z,19.33
2023-03-10T01:28:08.063Z,23.77
2023-03-10T01:29:30.902Z,20.55
2023-03-10T01:30:52.643Z,22.27
2023-03-10T01:32:14.698Z,20.13
2023-03-10T01:33:38.788Z,25.30
2023-03-10T01:35:01.055Z,22.90
2023-03-10T01:36:25.311Z,17.00
2023-03-10T01:37:47.007Z,14.60
2023-03-10T01:39:09.016Z,20.83
2023-03-10T01:40:32.430Z,21.92
2023-03-10T01:41:55.234Z,12.52
2023-03-10T01:43:28.549Z,16.33
2023-03-10T01:45:06.013Z,17.65
2023-03-10T01:46:39.787Z,12.65
2023-03-10T01:48:01.845Z,7.80
2023-03-10T01:49:28.168Z,18.17
2023-03-10T01:50:52.570Z,15.63
2023-03-10T01:52:19.598Z,14.82
2023-03-10T01:53:41.343Z,5.78
2023-03-10T01:55:07.207Z,6.57
2023-03-10T01:56:29.007Z,16.30
2023-03-10T01:57:55.556Z,16.35
2023-03-10T01:59:17.847Z,14.95
2023-03-10T02:00:41.206Z,14.20
2023-03-10T02:02:03.743Z,14.52
2023-03-10T02:03:28.870Z,11.75
2023-03-10T02:04:52.199Z,10.18
2023-03-10T02:06:14.797Z,15.65
2023-03-10T02:07:39.355Z,9.73
2023-03-10T02:09:03.563Z,14.55
2023-03-10T02:10:26.983Z,21.35
2023-03-10T02:11:49.741Z,15.05
2023-03-10T02:13:12.385Z,14.25
2023-03-10T02:14:35.221Z,13.25
2023-03-10T02:15:57.363Z,12.60
2023-03-10T02:17:21.334Z,12.57
2023-03-10T02:18:45.113Z,9.77
2023-03-10T02:20:17.213Z,15.07
2023-03-10T02:21:44.115Z,14.55
2023-03-10T02:23:06.194Z,14.30
2023-03-10T02:24:34.025Z,12.25
2023-03-10T02:26:05.080Z,12.35
2023-03-10T02:27:29.764Z,5.18
2023-03-10T02:28:53.218Z,12.48
2023-03-10T02:30:17.623Z,10.48
2023-03-10T02:31:40.439Z,13.27
2023-03-10T02:33:05.506Z,15.20
2023-03-10T02:34:27.978Z,13.07
2023-03-10T02:35:50.163Z,8.88
2023-03-10T02:37:19.397Z,9.13
2023-03-10T02:38:41.365Z,13.30
2023-03-10T02:40:19.425Z,10.75
2023-03-10T02:41:44.239Z,11.68
2023-03-10T02:43:13.987Z,9.52
2023-03-10T02:44:36.509Z,6.13
2023-03-10T02:46:01.060Z,12.77
2023-03-10T02:47:23.315Z,14.35
2023-03-10T02:48:45.968Z,16.85
2023-03-10T02:50:09.591Z,11.45
2023-03-10T02:51:32.393Z,17.13
2023-03-10T02:52:59.589Z,8.68
2023-03-10T02:54:22.378Z,5.05
2023-03-10T02:55:44.084Z,15.07
2023-03-10T02:57:06.468Z,12.73
2023-03-10T02:58:30.673Z,13.63
2023-03-10T02:59:53.679Z,13.05
2023-03-10T03:01:15.658Z,12.02
2023-03-10T03:02:37.749Z,12.98
2023-03-10T03:04:00.704Z,11.90
2023-03-10T03:05:23.134Z,10.23
2023-03-10T03:06:45.343Z,17.40
2023-03-10T03:08:09.098Z,10.48
2023-03-10T03:09:30.834Z,6.78
2023-03-10T03:10:53.062Z,9.50
2023-03-10T03:12:15.039Z,14.40
2023-03-10T03:13:37.898Z,13.15
2023-03-10T03:15:00.106Z,13.13
2023-03-10T03:16:23.036Z,14.60
2023-03-10T03:17:44.850Z,11.68
2023-03-10T03:19:06.841Z,14.02
2023-03-10T03:20:29.751Z,7.47
2023-03-10T03:21:51.744Z,12.48
2023-03-10T03:23:13.481Z,7.68
2023-03-10T03:24:35.475Z,9.98
2023-03-10T03:25:57.189Z,9.82
2023-03-10T03:27:19.611Z,9.95
2023-03-10T03:28:42.049Z,13.30
2023-03-10T03:30:06.704Z,9.32
2023-03-10T03:31:28.414Z,14.77
2023-03-10T03:32:52.738Z,8.88
2023-03-10T03:34:15.118Z,12.57
2023-03-10T03:35:37.652Z,10.15
2023-03-10T03:36:59.698Z,8.65
2023-03-10T03:38:22.554Z,9.23
2023-03-10T03:39:44.751Z,12.25
2023-03-10T03:41:07.119Z,11.70
2023-03-10T03:42:28.791Z,11.20
2023-03-10T03:43:51.455Z,13.38
2023-03-10T03:45:14.553Z,12.63
2023-03-10T03:46:36.807Z,8.30
2023-03-10T03:47:59.103Z,15.85
2023-03-10T03:49:21.298Z,10.98
2023-03-10T03:50:43.277Z,9.48
2023-03-10T03:52:07.045Z,9.07
2023-03-10T03:53:29.106Z,11.23
2023-03-10T03:54:51.826Z,5.80
2023-03-10T03:56:14.048Z,10.75
2023-03-10T03:57:36.453Z,7.82
2023-03-10T03:58:59.202Z,9.57
2023-03-10T04:00:22.736Z,10.32
2023-03-10T04:01:45.156Z,10.00
2023-03-10T04:03:07.161Z,6.78
2023-03-10T04:04:29.200Z,11.85
2023-03-10T04:05:52.230Z,10.73
2023-03-10T04:07:14.027Z,7.65
2023-03-10T04:08:36.199Z,2.38
2023-03-10T04:09:57.904Z,7.40
2023-03-10T04:11:19.888Z,14.00
2023-03-10T04:12:42.046Z,8.68
2023-03-10T04:14:04.705Z,10.70
2023-03-10T04:15:26.432Z,8.45
2023-03-10T04:16:48.809Z,7.25
2023-03-10T04:18:10.542Z,10.65
2023-03-10T04:19:32.757Z,7.20
2023-03-10T04:20:54.735Z,8.10
2023-03-10T04:22:16.844Z,8.82
2023-03-10T04:23:41.333Z,8.65
2023-03-10T04:25:03.256Z,9.68
2023-03-10T04:26:25.199Z,8.35
2023-03-10T04:27:47.247Z,10.07
2023-03-10T04:29:10.161Z,7.88
2023-03-10T04:30:32.178Z,8.93
2023-03-10T04:32:04.917Z,8.32
2023-03-10T04:33:28.502Z,10.13
2023-03-10T04:34:50.242Z,8.65
2023-03-10T04:36:12.265Z,9.40
2023-03-10T04:37:34.295Z,10.02
2023-03-10T04:38:57.315Z,11.52
2023-03-10T04:40:19.783Z,7.93
2023-03-10T04:41:42.264Z,10.63
2023-03-10T04:43:04.506Z,7.93
2023-03-10T04:44:31.238Z,9.50
2023-03-10T04:45:54.044Z,11.75
2023-03-10T04:47:16.218Z,10.95
2023-03-10T04:48:38.114Z,9.05
2023-03-10T04:50:00.516Z,13.77
2023-03-10T04:51:22.749Z,9.90
2023-03-10T04:52:44.758Z,9.93
2023-03-10T04:54:06.523Z,9.40
2023-03-10T04:55:28.598Z,12.93
2023-03-10T04:56:50.328Z,9.13
2023-03-10T04:58:12.508Z,7.63
2023-03-10T04:59:35.155Z,7.97
2023-03-10T05:01:03.557Z,8.88
2023-03-10T05:02:25.746Z,13.30
2023-03-10T05:03:47.528Z,11.90
2023-03-10T05:05:10.298Z,9.38
2023-03-10T05:06:32.842Z,12.73
2023-03-10T05:07:54.805Z,9.20
2023-03-10T05:09:16.591Z,10.68
2023-03-10T05:10:40.477Z,10.80
2023-03-10T05:12:03.509Z,10.68
2023-03-10T05:13:25.191Z,10.85
2023-03-10T05:14:47.805Z,10.35
2023-03-10T05:16:13.946Z,7.68
2023-03-10T05:17:36.594Z,9.70
2023-03-10T05:18:58.425Z,9.48
2023-03-10T05:20:20.603Z,10.55
2023-03-10T05:21:42.352Z,7.65
2023-03-10T05:23:04.576Z,9.65
2023-03-10T05:24:26.313Z,10.45
2023-03-10T05:25:48.687Z,10.75
2023-03-10T05:27:10.723Z,8.43
2023-03-10T05:28:38.590Z,6.70
2023-03-10T05:30:01.385Z,8.02
2023-03-10T05:31:25.598Z,11.48
2023-03-10T05:32:47.883Z,10.38
2023-03-10T05:34:11.145Z,11.18
2023-03-10T05:35:33.193Z,12.57
2023-03-10T05:36:55.684Z,6.53
2023-03-10T05:38:17.941Z,7.47
2023-03-10T05:39:40.183Z,9.82
2023-03-10T05:41:02.335Z,10.13
2023-03-10T05:42:24.471Z,7.45
2023-03-10T05:43:46.500Z,7.55
2023-03-10T05:45:11.936Z,11.20
2023-03-10T05:46:33.956Z,6.78
2023-03-10T05:47:55.644Z,7.85
2023-03-10T05:49:17.635Z,10.00
2023-03-10T05:50:39.422Z,7.45
2023-03-10T05:52:01.623Z,10.30
2023-03-10T05:53:24.679Z,8.00
2023-03-10T05:54:46.648Z,6.97
2023-03-10T05:56:10.578Z,11.30
2023-03-10T05:57:32.265Z,8.60
2023-03-10T05:58:54.286Z,9.35
2023-03-10T06:00:17.675Z,5.45
2023-03-10T06:01:41.328Z,7.90
2023-03-10T06:03:03.773Z,6.00
2023-03-10T06:04:27.613Z,12.65
2023-03-10T06:05:50.101Z,11.82
2023-03-10T06:07:12.930Z,8.50
2023-03-10T06:08:35.162Z,6.65
2023-03-10T06:09:57.379Z,13.55
2023-03-10T06:11:19.363Z,8.60
2023-03-10T06:12:41.392Z,12.05
2023-03-10T06:14:03.661Z,8.60
2023-03-10T06:15:26.085Z,10.88
2023-03-10T06:16:50.792Z,9.10
2023-03-10T06:18:13.817Z,12.13
2023-03-10T06:19:36.027Z,8.82
2023-03-10T06:20:58.475Z,9.45
2023-03-10T06:22:20.452Z,8.95
2023-03-10T06:23:42.884Z,8.15
2023-03-10T06:25:06.043Z,8.13
2023-03-10T06:26:27.753Z,2.55
2023-03-10T06:27:49.967Z,11.15
2023-03-10T06:29:12.239Z,13.27
2023-03-10T06:30:34.993Z,8.20
2023-03-10T06:31:57.255Z,9.35
2023-03-10T06:33:19.488Z,11.95
2023-03-10T06:34:42.274Z,7.60
2023-03-10T06:36:05.271Z,9.85
2023-03-10T06:37:27.691Z,8.70
2023-03-10T06:38:49.858Z,11.90
2023-03-10T06:40:13.519Z,7.55
2023-03-10T06:41:36.193Z,9.77
2023-03-10T06:42:58.197Z,14.45
2023-03-10T06:44:20.174Z,9.00
2023-03-10T06:45:43.352Z,8.60
2023-03-10T06:47:05.709Z,10.95
2023-03-10T06:48:27.682Z,15.50
2023-03-10T06:49:49.381Z,9.30
2023-03-10T06:51:15.716Z,11.57
2023-03-10T06:52:37.944Z,8.95
2023-03-10T06:53:59.929Z,8.23
2023-03-10T06:55:22.085Z,9.55
2023-03-10T06:56:44.153Z,8.18
2023-03-10T06:58:06.463Z,7.95
2023-03-10T06:59:30.540Z,10.02
2023-03-10T07:00:53.521Z,10.23
2023-03-10T07:02:15.561Z,16.75
2023-03-10T07:03:37.752Z,7.35
2023-03-10T07:04:59.854Z,10.98
2023-03-10T07:06:22.506Z,7.47
2023-03-10T07:07:44.718Z,9.35
2023-03-10T07:09:06.824Z,8.43
2023-03-10T07:10:28.840Z,7.47
2023-03-10T07:11:50.807Z,9.70
2023-03-10T07:13:15.792Z,14.45
2023-03-10T07:14:37.806Z,10.90
2023-03-10T07:16:00.551Z,11.77
2023-03-10T07:17:22.540Z,11.55
2023-03-10T07:18:44.638Z,9.00
2023-03-10T07:20:08.438Z,14.20
2023-03-10T07:21:31.375Z,9.27
2023-03-10T07:22:53.398Z,10.35
2023-03-10T07:24:17.094Z,9.27
2023-03-10T07:25:39.365Z,16.77
2023-03-10T07:27:01.968Z,9.60
2023-03-10T07:28:24.520Z,11.70
2023-03-10T07:29:46.618Z,11.23
2023-03-10T07:31:10.943Z,10.05
2023-03-10T07:32:33.371Z,4.85
2023-03-10T07:33:55.328Z,5.70
2023-03-10T07:35:17.070Z,8.10
2023-03-10T07:36:39.069Z,7.95
2023-03-10T07:38:01.015Z,8.95
2023-03-10T07:39:22.704Z,12.82
2023-03-10T07:40:44.897Z,11.27
2023-03-10T07:42:07.488Z,9.48
2023-03-10T07:43:30.209Z,8.70
2023-03-10T07:44:52.582Z,10.02
2023-03-10T07:46:15.876Z,11.98
2023-03-10T07:47:37.880Z,8.70
2023-03-10T07:49:03.420Z,11.60
2023-03-10T07:50:26.137Z,12.57
2023-03-10T07:51:48.126Z,10.55
2023-03-10T07:53:10.273Z,9.57
2023-03-10T07:54:32.466Z,10.52
2023-03-10T07:55:54.343Z,9.13
2023-03-10T07:57:16.854Z,11.15
2023-03-10T07:58:39.704Z,11.07
2023-03-10T08:00:01.981Z,10.85
2023-03-10T08:01:25.527Z,10.02
2023-03-10T08:02:47.573Z,8.57
2023-03-10T08:04:11.709Z,14.98
2023-03-10T08:05:33.928Z,13.07
2023-03-10T08:06:56.229Z,17.42
2023-03-10T08:08:18.510Z,16.05
2023-03-10T08:09:40.662Z,14.18
2023-03-10T08:11:03.668Z,11.57
2023-03-10T08:12:25.873Z,11.20
2023-03-10T08:13:48.493Z,9.77
2023-03-10T08:15:12.560Z,11.88
2023-03-10T08:16:35.645Z,14.38
2023-03-10T08:17:57.775Z,10.95
2023-03-10T08:19:20.783Z,13.50
2023-03-10T08:20:42.764Z,14.15
2023-03-10T08:22:05.228Z,12.43
2023-03-10T08:23:26.912Z,12.23
2023-03-10T08:24:49.270Z,13.00
2023-03-10T08:26:13.661Z,13.70
2023-03-10T08:27:35.821Z,14.48
2023-03-10T08:28:57.789Z,13.98
2023-03-10T08:30:20.712Z,15.18
2023-03-10T08:31:43.681Z,12.63
2023-03-10T08:33:07.537Z,13.45
2023-03-10T08:34:32.612Z,18.63
2023-03-10T08:36:09.617Z,14.05
2023-03-10T08:37:31.615Z,15.27
2023-03-10T08:38:54.768Z,14.13
2023-03-10T08:40:17.069Z,14.18
2023-03-10T08:41:43.579Z,12.55
2023-03-10T08:43:06.092Z,13.98
2023-03-10T08:44:28.288Z,13.88
2023-03-10T08:45:50.139Z,12.85
2023-03-10T08:47:12.931Z,10.18
2023-03-10T08:48:35.491Z,14.85
2023-03-10T08:49:57.744Z,14.13
2023-03-10T08:51:20.184Z,15.35
2023-03-10T08:52:42.262Z,14.68
2023-03-10T08:54:04.845Z,15.65
2023-03-10T08:55:26.906Z,17.05
2023-03-10T08:56:49.453Z,12.35
2023-03-10T08:58:13.042Z,14.10
2023-03-10T08:59:35.031Z,15.95
2023-03-10T09:00:57.048Z,11.95
2023-03-10T09:02:21.145Z,11.95
2023-03-10T09:03:44.389Z,17.08
2023-03-10T09:05:07.338Z,11.45
2023-03-10T09:06:29.550Z,16.20
2023-03-10T09:07:51.528Z,10.23
2023-03-10T09:09:13.560Z,11.73
2023-03-10T09:10:36.042Z,11.60
2023-03-10T09:11:58.207Z,9.68
2023-03-10T09:13:20.401Z,10.57
2023-03-10T09:14:42.391Z,13.27
2023-03-10T09:16:04.763Z,11.48
2023-03-10T09:17:27.745Z,12.00
2023-03-10T09:18:49.756Z,13.23
2023-03-10T09:20:11.931Z,9.75
2023-03-10T09:21:34.278Z,11.48
2023-03-10T09:22:56.491Z,11.52
2023-03-10T09:24:19.213Z,16.52
2023-03-10T09:25:42.500Z,15.23
2023-03-10T09:27:04.760Z,13.65
2023-03-10T09:28:26.877Z,17.02
2023-03-10T09:29:49.110Z,12.93
2023-03-10T09:31:17.153Z,18.15
2023-03-10T09:32:39.863Z,14.30
2023-03-10T09:34:02.183Z,18.52
2023-03-10T09:35:24.221Z,14.63
2023-03-10T09:36:47.910Z,13.65
2023-03-10T09:38:28.732Z,16.13
2023-03-10T09:40:15.024Z,14.40
2023-03-10T09:42:37.428Z,13.95
2023-03-10T09:44:26.017Z,12.57
2023-03-10T09:45:51.894Z,11.00
2023-03-10T09:47:23.691Z,11.13
2023-03-10T09:48:53.083Z,14.68
2023-03-10T09:50:27.367Z,11.43
2023-03-10T09:51:51.173Z,15.82
2023-03-10T09:53:27.642Z,15.30
2023-03-10T09:54:57.630Z,13.25
2023-03-10T09:56:21.103Z,10.00
2023-03-10T09:57:49.114Z,16.65
2023-03-10T09:59:14.941Z,13.05
2023-03-10T10:00:40.467Z,10.82
2023-03-10T10:02:03.760Z,12.38
2023-03-10T10:03:33.459Z,12.52
2023-03-10T10:05:04.138Z,16.17
2023-03-10T10:06:28.905Z,14.90
2023-03-10T10:07:54.994Z,15.27
2023-03-10T10:09:25.232Z,15.73
2023-03-10T10:10:49.472Z,17.58
2023-03-10T10:12:13.144Z,13.40
2023-03-10T10:13:35.623Z,11.73
2023-03-10T10:14:59.489Z,12.40
2023-03-10T10:16:34.542Z,17.70
2023-03-10T10:18:18.530Z,14.65
2023-03-10T10:19:42.314Z,14.10
2023-03-10T10:21:10.546Z,18.27
2023-03-10T10:22:34.734Z,11.93
2023-03-10T10:23:58.643Z,11.50
2023-03-10T10:25:22.192Z,14.50
2023-03-10T10:26:44.396Z,11.57
2023-03-10T10:28:18.677Z,12.02
2023-03-10T10:29:42.827Z,8.35
2023-03-10T10:31:13.657Z,14.07
2023-03-10T10:32:55.644Z,10.77
2023-03-10T10:34:21.759Z,12.00
2023-03-10T10:35:46.841Z,10.18
2023-03-10T10:37:27.394Z,9.40
2023-03-10T10:38:50.411Z,9.40
2023-03-10T10:40:23.628Z,7.95
2023-03-10T10:41:45.850Z,11.25
2023-03-10T10:43:16.702Z,7.63
2023-03-10T10:44:40.585Z,9.52
2023-03-10T10:46:06.122Z,8.45
2023-03-10T10:47:31.343Z,9.38
2023-03-10T10:49:06.844Z,8.32
2023-03-10T10:50:30.073Z,7.18
2023-03-10T10:52:00.040Z,11.68
2023-03-10T10:53:26.077Z,6.68
2023-03-10T10:54:55.512Z,8.25
2023-03-10T10:56:19.143Z,7.75
2023-03-10T10:57:55.996Z,7.70
2023-03-10T10:59:21.148Z,8.40
2023-03-10T11:00:43.175Z,7.15
2023-03-10T11:02:22.248Z,8.00
2023-03-10T11:03:47.186Z,5.95
2023-03-10T11:05:15.537Z,6.65
2023-03-10T11:06:37.744Z,14.68
2023-03-10T11:08:17.392Z,6.28
2023-03-10T11:09:40.062Z,10.80
2023-03-10T11:11:11.979Z,8.32
2023-03-10T11:12:36.760Z,5.82
2023-03-10T11:14:05.983Z,6.75
2023-03-10T11:15:32.412Z,8.93
2023-03-10T11:16:59.175Z,10.88
2023-03-10T11:18:24.933Z,19.50
2023-03-10T11:19:58.944Z,20.38
2023-03-10T11:21:23.558Z,12.82
2023-03-10T11:22:47.877Z,7.25
2023-03-10T11:24:16.310Z,9.00
2023-03-10T11:25:42.670Z,8.48
2023-03-10T11:27:08.471Z,26.45
2023-03-10T11:28:43.522Z,9.52
2023-03-10T11:30:11.896Z,11.30
2023-03-10T11:31:40.012Z,11.60
2023-03-10T11:33:17.579Z,8.93
2023-03-10T11:34:42.916Z,9.43
2023-03-10T11:36:16.679Z,8.27
2023-03-10T11:37:43.800Z,9.07
2023-03-10T11:39:11.971Z,9.00
2023-03-10T11:40:42.491Z,9.73
2023-03-10T11:42:10.631Z,9.23
2023-03-10T11:43:45.100Z,9.77
2023-03-10T11:45:20.303Z,10.55
2023-03-10T11:46:47.769Z,10.88
2023-03-10T11:48:24.217Z,7.35
2023-03-10T11:49:53.294Z,6.43
2023-03-10T11:51:19.592Z,8.40
2023-03-10T11:52:42.740Z,8.98
2023-03-10T11:54:10.328Z,9.45
2023-03-10T11:55:32.573Z,11.10
2023-03-10T11:56:56.141Z,10.90
2023-03-10T11:58:24.238Z,8.68
2023-03-10T11:59:51.251Z,6.22
2023-03-10T12:01:18.077Z,10.32
2023-03-10T12:02:46.804Z,7.32
2023-03-10T12:04:12.802Z,9.15
2023-03-10T12:05:43.919Z,7.97
2023-03-10T12:07:10.313Z,6.15
2023-03-10T12:08:34.030Z,10.02
2023-03-10T12:09:59.150Z,6.45
2023-03-10T12:11:26.264Z,7.38
2023-03-10T12:12:50.482Z,6.65
2023-03-10T12:14:13.739Z,5.97
2023-03-10T12:15:39.046Z,7.63
2023-03-10T12:17:01.557Z,5.72
2023-03-10T12:18:25.730Z,7.30
2023-03-10T12:20:18.934Z,6.32
2023-03-10T12:21:41.037Z,6.88
2023-03-10T12:23:30.446Z,5.35
2023-03-10T12:24:55.130Z,8.20
2023-03-10T12:26:57.848Z,7.47
2023-03-10T12:28:24.742Z,6.57
2023-03-10T12:29:47.091Z,5.75
2023-03-10T12:31:10.566Z,7.85
2023-03-10T12:32:48.013Z,6.95
2023-03-10T12:34:14.559Z,4.07
2023-03-10T12:35:45.346Z,6.55
2023-03-10T12:37:09.503Z,9.30
2023-03-10T12:38:37.237Z,5.53
2023-03-10T12:39:59.457Z,7.60
2023-03-10T12:41:39.219Z,5.35
2023-03-10T12:43:40.319Z,5.68
2023-03-10T12:45:23.453Z,7.55
2023-03-10T12:46:47.532Z,17.83
2023-03-10T12:48:12.621Z,10.82
2023-03-10T12:49:38.235Z,10.15
2023-03-10T12:51:02.065Z,13.32
2023-03-10T12:52:30.734Z,7.63
2023-03-10T12:53:56.756Z,4.63
2023-03-10T12:55:21.899Z,5.47
2023-03-10T12:56:47.785Z,5.60
2023-03-10T12:58:15.187Z,4.78
2023-03-10T12:59:39.979Z,5.70
2023-03-10T13:01:06.003Z,4.78
2023-03-10T13:02:33.884Z,4.28
2023-03-10T13:03:56.523Z,5.35
2023-03-10T13:05:21.583Z,4.88
2023-03-10T13:06:45.702Z,5.30
2023-03-10T13:08:13.570Z,7.22
2023-03-10T13:09:37.680Z,5.00
2023-03-10T13:11:00.604Z,5.75
2023-03-10T13:12:29.143Z,7.07
2023-03-10T13:13:54.689Z,6.85
2023-03-10T13:15:25.028Z,4.65
2023-03-10T13:16:53.836Z,6.63
2023-03-10T13:18:18.583Z,7.60
2023-03-10T13:19:40.846Z,6.53
2023-03-10T13:21:03.032Z,5.45
2023-03-10T13:22:25.102Z,5.03
2023-03-10T13:23:47.051Z,6.20
2023-03-10T13:25:14.148Z,5.00
2023-03-10T13:26:36.133Z,6.78
2023-03-10T13:27:58.102Z,6.93
2023-03-10T13:29:20.980Z,6.15
2023-03-10T13:30:44.204Z,7.20
2023-03-10T13:32:07.367Z,4.43
2023-03-10T13:33:29.325Z,5.35
2023-03-10T13:34:51.473Z,6.68
2023-03-10T13:36:22.296Z,7.43
2023-03-10T13:37:44.447Z,4.25
2023-03-10T13:39:15.157Z,3.60
2023-03-10T13:40:39.408Z,3.50
2023-03-10T13:42:03.529Z,5.45
2023-03-10T13:43:35.406Z,3.47
2023-03-10T13:44:58.052Z,3.00
2023-03-10T13:46:25.847Z,5.15
2023-03-10T13:47:48.005Z,3.70
2023-03-10T13:49:14.873Z,4.68
2023-03-10T13:50:36.863Z,5.47
2023-03-10T13:52:00.854Z,5.85
2023-03-10T13:53:25.140Z,4.97
2023-03-10T13:54:47.515Z,7.82
2023-03-10T13:56:16.999Z,7.80
2023-03-10T13:57:40.820Z,4.57
2023-03-10T13:59:05.494Z,5.78
2023-03-10T14:00:28.699Z,4.63
2023-03-10T14:01:53.334Z,4.63
2023-03-10T14:03:17.066Z,8.02
2023-03-10T14:04:41.766Z,5.03
2023-03-10T14:06:13.054Z,3.63
2023-03-10T14:07:36.384Z,5.18
2023-03-10T14:09:13.870Z,4.65
2023-03-10T14:10:36.020Z,4.32
2023-03-10T14:11:58.075Z,4.15
2023-03-10T14:13:42.833Z,6.43
2023-03-10T14:15:21.176Z,4.53
2023-03-10T14:16:52.517Z,5.35
2023-03-10T14:18:19.013Z,4.35
2023-03-10T14:19:50.163Z,6.53
2023-03-10T14:21:31.184Z,4.82
2023-03-10T14:22:53.400Z,5.43
2023-03-10T14:24:15.701Z,4.13
2023-03-10T14:25:41.481Z,5.90
2023-03-10T14:27:08.291Z,4.63
2023-03-10T14:28:31.655Z,4.82
2023-03-10T14:29:55.444Z,7.20
2023-03-10T14:31:22.519Z,5.82
2023-03-10T14:32:45.299Z,6.47
2023-03-10T14:34:09.762Z,6.32
2023-03-10T14:35:31.747Z,5.20
2023-03-10T14:36:53.687Z,5.85
2023-03-10T14:38:16.288Z,5.53
2023-03-10T14:39:38.315Z,4.47
2023-03-10T14:41:00.354Z,7.13
2023-03-10T14:42:25.205Z,6.93
2023-03-10T14:43:47.906Z,6.88
2023-03-10T14:45:22.370Z,6.03
2023-03-10T14:46:47.033Z,8.18
2023-03-10T14:48:14.288Z,6.53
2023-03-10T14:49:41.388Z,6.82
2023-03-10T14:51:03.504Z,8.82
2023-03-10T14:52:25.347Z,6.32
2023-03-10T14:53:47.466Z,10.20
2023-03-10T14:55:11.282Z,7.35
2023-03-10T14:56:33.747Z,6.82
2023-03-10T14:57:58.598Z,7.22
2023-03-10T14:59:20.606Z,7.22
2023-03-10T15:00:42.726Z,8.77
2023-03-10T15:02:08.214Z,6.82
2023-03-10T15:03:30.836Z,9.15
2023-03-10T15:04:53.013Z,8.32
2023-03-10T15:06:17.132Z,11.20
2023-03-10T15:07:39.097Z,18.45
2023-03-10T15:09:01.288Z,9.20
2023-03-10T15:10:23.571Z,9.73
2023-03-10T15:11:46.641Z,7.80
2023-03-10T15:13:12.671Z,11.65
2023-03-10T15:14:34.966Z,7.88
2023-03-10T15:15:57.034Z,9.15
2023-03-10T15:17:19.533Z,9.05
2023-03-10T15:18:42.160Z,7.20
2023-03-10T15:20:07.634Z,6.60
2023-03-10T15:21:29.599Z,6.32
2023-03-10T15:22:53.776Z,6.25
2023-03-10T15:24:15.776Z,7.28
2023-03-10T15:25:37.997Z,7.38
2023-03-10T15:26:59.995Z,7.75
2023-03-10T15:28:22.204Z,6.80
2023-03-10T15:29:44.219Z,9.20
2023-03-10T15:31:07.208Z,8.80
2023-03-10T15:32:29.266Z,7.60
2023-03-10T15:33:52.027Z,8.45
2023-03-10T15:35:15.623Z,8.20
2023-03-10T15:36:38.193Z,8.40
2023-03-10T15:38:00.374Z,8.95
2023-03-10T15:39:31.655Z,10.93
2023-03-10T15:40:56.104Z,10.85
2023-03-10T15:42:18.071Z,9.95
2023-03-10T15:43:40.180Z,8.02
2023-03-10T15:45:04.117Z,11.00
2023-03-10T15:46:26.226Z,10.73
2023-03-10T15:47:48.798Z,9.82
2023-03-10T15:49:11.415Z,11.77
2023-03-10T15:50:33.219Z,10.20
2023-03-10T15:51:55.356Z,8.52
2023-03-10T15:53:17.405Z,10.73
2023-03-10T15:54:39.426Z,12.65
2023-03-10T15:56:06.834Z,11.10
2023-03-10T15:57:29.084Z,9.68
2023-03-10T15:58:51.862Z,10.65
2023-03-10T16:00:16.133Z,10.40
2023-03-10T16:01:38.220Z,7.75
2023-03-10T16:03:00.218Z,13.18
2023-03-10T16:04:23.185Z,11.60
2023-03-10T16:05:47.490Z,9.70
2023-03-10T16:07:09.540Z,9.88
2023-03-10T16:08:36.373Z,11.35
2023-03-10T16:09:58.326Z,10.88
2023-03-10T16:11:21.292Z,11.20
2023-03-10T16:12:43.790Z,12.00
2023-03-10T16:14:05.952Z,10.88
2023-03-10T16:15:28.248Z,11.27
2023-03-10T16:16:50.472Z,10.65
2023-03-10T16:18:12.979Z,10.93
2023-03-10T16:19:35.715Z,12.40
2023-03-10T16:20:58.454Z,13.93
2023-03-10T16:22:20.445Z,8.88
2023-03-10T16:23:43.064Z,10.13
2023-03-10T16:25:06.138Z,11.65
2023-03-10T16:26:28.546Z,10.93
2023-03-10T16:27:50.708Z,15.48
2023-03-10T16:29:13.622Z,11.77
2023-03-10T16:30:35.894Z,14.75
2023-03-10T16:31:57.928Z,12.63
2023-03-10T16:33:19.944Z,12.55
2023-03-10T16:34:42.775Z,13.80
2023-03-10T16:36:07.110Z,11.88
2023-03-10T16:37:29.511Z,12.57
2023-03-10T16:38:52.744Z,14.50
2023-03-10T16:40:15.507Z,11.50
2023-03-10T16:41:37.876Z,10.45
2023-03-10T16:42:59.898Z,12.10
2023-03-10T16:44:21.871Z,9.90
2023-03-10T16:45:47.936Z,10.05
2023-03-10T16:47:11.634Z,13.60
2023-03-10T16:48:34.169Z,12.50
2023-03-10T16:49:57.028Z,11.27
2023-03-10T16:51:27.108Z,14.95
2023-03-10T16:52:54.291Z,13.40
2023-03-10T16:54:17.812Z,11.77
2023-03-10T16:55:39.846Z,9.18
2023-03-10T16:57:03.883Z,12.95
2023-03-10T16:58:25.860Z,13.05
2023-03-10T16:59:48.014Z,9.32
2023-03-10T17:01:10.707Z,11.50
2023-03-10T17:02:33.702Z,10.80
2023-03-10T17:03:56.196Z,9.98
2023-03-10T17:05:19.224Z,13.82
2023-03-10T17:06:41.535Z,10.73
2023-03-10T17:08:05.443Z,10.68
2023-03-10T17:09:27.804Z,10.13
2023-03-10T17:10:49.752Z,12.02
2023-03-10T17:12:11.914Z,10.88
2023-03-10T17:13:34.137Z,11.20
2023-03-10T17:14:57.276Z,9.32
2023-03-10T17:16:22.607Z,10.95
2023-03-10T17:17:44.658Z,9.93
2023-03-10T17:19:07.938Z,10.20
2023-03-10T17:20:30.656Z,14.43
2023-03-10T17:21:52.659Z,14.70
2023-03-10T17:23:14.992Z,8.35
2023-03-10T17:24:39.551Z,12.02
2023-03-10T17:26:01.724Z,10.82
2023-03-10T17:27:24.440Z,10.57
2023-03-10T17:28:47.745Z,11.68
2023-03-10T17:30:10.955Z,11.57
2023-03-10T17:31:32.982Z,13.13
2023-03-10T17:32:55.116Z,10.82
2023-03-10T17:34:17.494Z,11.30
2023-03-10T17:35:41.387Z,11.70
2023-03-10T17:37:03.484Z,10.90
2023-03-10T17:38:26.026Z,12.38
2023-03-10T17:39:48.233Z,14.27
2023-03-10T17:41:11.554Z,6.32
2023-03-10T17:42:33.524Z,8.82
2023-03-10T17:43:55.967Z,13.05
2023-03-10T17:45:18.021Z,14.77
2023-03-10T17:46:40.381Z,10.98
2023-03-10T17:48:02.375Z,11.60
2023-03-10T17:49:24.414Z,20.20
2023-03-10T17:50:47.499Z,13.38
2023-03-10T17:52:10.672Z,12.48
2023-03-10T17:53:32.959Z,11.63
2023-03-10T17:54:55.134Z,16.02
2023-03-10T17:56:17.419Z,16.17
2023-03-10T17:57:40.908Z,13.90
2023-03-10T17:59:03.115Z,14.60
2023-03-10T18:00:25.920Z,13.50
2023-03-10T18:01:49.132Z,14.07
2023-03-10T18:03:12.534Z,13.93
2023-03-10T18:04:36.239Z,10.43
2023-03-10T18:05:58.569Z,11.45
2023-03-10T18:07:20.543Z,12.10
2023-03-10T18:08:42.625Z,10.77
2023-03-10T18:10:06.189Z,11.43
2023-03-10T18:11:28.948Z,9.77
2023-03-10T18:12:51.527Z,11.20
2023-03-10T18:14:13.740Z,11.35
2023-03-10T18:15:36.837Z,14.20
2023-03-10T18:17:00.028Z,12.02
2023-03-10T18:18:22.561Z,10.95
2023-03-10T18:19:44.845Z,9.05
2023-03-10T18:21:09.414Z,8.23
2023-03-10T18:22:31.638Z,10.88